sensor_id;sensor_type;location;lat;lon;timestamp;P1;durP1;ratioP1;P2;durP2;ratioP2
22268;SDS011;11303;50.772;19.670;2023-08-06T10:16:31;0.98;;;0.88;;
22268;SDS011;11303;50.772;19.670;2023-08-06T10:18:35;5.35;;;1.63;;
22268;SDS011;11303;50.772;19.670;2023-08-06T10:20:39;4.40;;;1.42;;
22268;SDS011;11303;50.772;19.670;2023-08-06T10:22:44;1.95;;;0.93;;
22268;SDS011;11303;50.772;19.670;2023-08-06T10:24:53;4.53;;;1.92;;
22268;SDS011;11303;50.772;19.670;2023-08-06T10:26:56;2.25;;;0.95;;
22268;SDS011;11303;50.772;19.670;2023-08-06T10:29:00;2.72;;;1.17;;
22268;SDS011;11303;50.772;19.670;2023-08-06T10:31:01;1.42;;;1.08;;
22268;SDS011;11303;50.772;19.670;2023-08-06T10:33:04;1.90;;;1.70;;
22268;SDS011;11303;50.772;19.670;2023-08-06T10:35:05;1.70;;;1.30;;
22268;SDS011;11303;50.772;19.670;2023-08-06T10:37:09;0.60;;;0.60;;
22268;SDS011;11303;50.772;19.670;2023-08-06T10:39:19;1.52;;;0.70;;
22268;SDS011;11303;50.772;19.670;2023-08-06T10:41:31;1.10;;;0.70;;
22268;SDS011;11303;50.772;19.670;2023-08-06T10:43:34;1.52;;;0.90;;
22268;SDS011;11303;50.772;19.670;2023-08-06T10:45:40;2.05;;;0.70;;
22268;SDS011;11303;50.772;19.670;2023-08-06T10:47:51;1.80;;;0.65;;
22268;SDS011;11303;50.772;19.670;2023-08-06T10:49:53;0.98;;;0.40;;
22268;SDS011;11303;50.772;19.670;2023-08-06T10:51:54;1.20;;;0.52;;
22268;SDS011;11303;50.772;19.670;2023-08-06T10:53:57;2.65;;;0.70;;
22268;SDS011;11303;50.772;19.670;2023-08-06T10:55:59;0.93;;;0.50;;
22268;SDS011;11303;50.772;19.670;2023-08-06T10:58:02;1.50;;;0.40;;
22268;SDS011;11303;50.772;19.670;2023-08-06T11:00:04;0.85;;;0.70;;
22268;SDS011;11303;50.772;19.670;2023-08-06T11:02:17;1.70;;;0.93;;
22268;SDS011;11303;50.772;19.670;2023-08-06T11:04:19;0.65;;;0.65;;
22268;SDS011;11303;50.772;19.670;2023-08-06T11:06:21;1.13;;;0.50;;
22268;SDS011;11303;50.772;19.670;2023-08-06T11:08:28;0.70;;;0.50;;
22268;SDS011;11303;50.772;19.670;2023-08-06T11:10:32;1.83;;;0.90;;
22268;SDS011;11303;50.772;19.670;2023-08-06T11:12:35;2.25;;;0.80;;
22268;SDS011;11303;50.772;19.670;2023-08-06T11:14:37;0.98;;;0.47;;
22268;SDS011;11303;50.772;19.670;2023-08-06T11:16:39;0.77;;;0.60;;
22268;SDS011;11303;50.772;19.670;2023-08-06T11:18:42;1.25;;;0.50;;
22268;SDS011;11303;50.772;19.670;2023-08-06T11:20:44;1.02;;;0.30;;
22268;SDS011;11303;50.772;19.670;2023-08-06T11:22:46;0.80;;;0.60;;
22268;SDS011;11303;50.772;19.670;2023-08-06T11:24:48;0.30;;;0.30;;
22268;SDS011;11303;50.772;19.670;2023-08-06T11:26:50;0.40;;;0.40;;
22268;SDS011;11303;50.772;19.670;2023-08-06T11:28:52;0.35;;;0.30;;
22268;SDS011;11303;50.772;19.670;2023-08-06T11:30:54;2.22;;;0.20;;
22268;SDS011;11303;50.772;19.670;2023-08-06T11:32:58;1.58;;;0.35;;
22268;SDS011;11303;50.772;19.670;2023-08-06T11:35:08;0.28;;;0.28;;
22268;SDS011;11303;50.772;19.670;2023-08-06T11:37:11;0.40;;;0.30;;
22268;SDS011;11303;50.772;19.670;2023-08-06T11:39:13;0.20;;;0.20;;
22268;SDS011;11303;50.772;19.670;2023-08-06T11:41:15;0.20;;;0.20;;
22268;SDS011;11303;50.772;19.670;2023-08-06T11:43:18;0.88;;;0.30;;
22268;SDS011;11303;50.772;19.670;2023-08-06T11:45:26;2.35;;;0.40;;
22268;SDS011;11303;50.772;19.670;2023-08-06T11:47:28;0.38;;;0.30;;
22268;SDS011;11303;50.772;19.670;2023-08-06T11:51:46;0.35;;;0.35;;
22268;SDS011;11303;50.772;19.670;2023-08-06T11:53:49;0.93;;;0.50;;
22268;SDS011;11303;50.772;19.670;2023-08-06T11:55:51;0.93;;;0.77;;
22268;SDS011;11303;50.772;19.670;2023-08-06T11:57:53;0.90;;;0.70;;
22268;SDS011;11303;50.772;19.670;2023-08-06T11:59:56;0.77;;;0.77;;
22268;SDS011;11303;50.772;19.670;2023-08-06T12:01:59;1.70;;;1.25;;
22268;SDS011;11303;50.772;19.670;2023-08-06T12:04:04;2.20;;;1.70;;
22268;SDS011;11303;50.772;19.670;2023-08-06T12:06:08;1.83;;;1.20;;
22268;SDS011;11303;50.772;19.670;2023-08-06T12:08:10;2.05;;;1.88;;
22268;SDS011;11303;50.772;19.670;2023-08-06T12:10:12;3.78;;;2.20;;
22268;SDS011;11303;50.772;19.670;2023-08-06T12:12:15;3.03;;;2.60;;
22268;SDS011;11303;50.772;19.670;2023-08-06T12:14:17;2.05;;;1.90;;
22268;SDS011;11303;50.772;19.670;2023-08-06T12:16:19;1.73;;;1.52;;
22268;SDS011;11303;50.772;19.670;2023-08-06T12:18:23;1.98;;;1.50;;
22268;SDS011;11303;50.772;19.670;2023-08-06T12:20:24;2.28;;;1.10;;
22268;SDS011;11303;50.772;19.670;2023-08-06T12:22:26;3.38;;;0.80;;
22268;SDS011;11303;50.772;19.670;2023-08-06T12:24:29;1.77;;;0.80;;
22268;SDS011;11303;50.772;19.670;2023-08-06T12:26:33;3.35;;;0.80;;
22268;SDS011;11303;50.772;19.670;2023-08-06T12:28:34;1.27;;;0.80;;
22268;SDS011;11303;50.772;19.670;2023-08-06T12:30:36;0.70;;;0.70;;
22268;SDS011;11303;50.772;19.670;2023-08-06T12:32:38;1.90;;;1.40;;
22268;SDS011;11303;50.772;19.670;2023-08-06T12:34:40;0.55;;;0.55;;
22268;SDS011;11303;50.772;19.670;2023-08-06T12:36:53;2.42;;;2.22;;
22268;SDS011;11303;50.772;19.670;2023-08-06T12:38:55;2.20;;;1.50;;
22268;SDS011;11303;50.772;19.670;2023-08-06T12:40:56;1.02;;;1.00;;
22268;SDS011;11303;50.772;19.670;2023-08-06T12:42:58;0.57;;;0.57;;
22268;SDS011;11303;50.772;19.670;2023-08-06T12:45:00;2.97;;;0.70;;
22268;SDS011;11303;50.772;19.670;2023-08-06T12:47:02;1.55;;;0.52;;
22268;SDS011;11303;50.772;19.670;2023-08-06T12:49:04;0.65;;;0.60;;
22268;SDS011;11303;50.772;19.670;2023-08-06T12:51:06;2.78;;;0.82;;
22268;SDS011;11303;50.772;19.670;2023-08-06T12:53:07;0.95;;;0.70;;
22268;SDS011;11303;50.772;19.670;2023-08-06T12:55:09;1.13;;;0.73;;
22268;SDS011;11303;50.772;19.670;2023-08-06T12:57:10;1.35;;;0.57;;
22268;SDS011;11303;50.772;19.670;2023-08-06T12:59:15;1.42;;;1.25;;
22268;SDS011;11303;50.772;19.670;2023-08-06T13:01:18;1.70;;;1.10;;
22268;SDS011;11303;50.772;19.670;2023-08-06T13:03:22;2.25;;;0.90;;
22268;SDS011;11303;50.772;19.670;2023-08-06T13:05:24;0.98;;;0.75;;
22268;SDS011;11303;50.772;19.670;2023-08-06T13:07:25;0.73;;;0.73;;
22268;SDS011;11303;50.772;19.670;2023-08-06T13:09:27;1.15;;;0.70;;
22268;SDS011;11303;50.772;19.670;2023-08-06T13:11:36;2.33;;;0.70;;
22268;SDS011;11303;50.772;19.670;2023-08-06T13:13:39;1.08;;;0.85;;
22268;SDS011;11303;50.772;19.670;2023-08-06T13:15:41;1.17;;;1.08;;
22268;SDS011;11303;50.772;19.670;2023-08-06T13:17:43;1.10;;;0.80;;
22268;SDS011;11303;50.772;19.670;2023-08-06T13:19:44;1.58;;;1.27;;
22268;SDS011;11303;50.772;19.670;2023-08-06T13:23:48;0.65;;;0.65;;
22268;SDS011;11303;50.772;19.670;2023-08-06T13:25:50;0.70;;;0.70;;
22268;SDS011;11303;50.772;19.670;2023-08-06T13:27:51;1.90;;;0.85;;
22268;SDS011;11303;50.772;19.670;2023-08-06T13:29:53;3.17;;;0.95;;
22268;SDS011;11303;50.772;19.670;2023-08-06T13:31:55;0.73;;;0.73;;
22268;SDS011;11303;50.772;19.670;2023-08-06T13:33:56;1.85;;;1.60;;
22268;SDS011;11303;50.772;19.670;2023-08-06T13:36:01;2.95;;;1.70;;
22268;SDS011;11303;50.772;19.670;2023-08-06T13:38:03;22.25;;;14.60;;
22268;SDS011;11303;50.772;19.670;2023-08-06T13:40:05;24.73;;;21.15;;
22268;SDS011;11303;50.772;19.670;2023-08-06T13:42:08;13.70;;;12.40;;
22268;SDS011;11303;50.772;19.670;2023-08-06T13:44:10;3.67;;;3.38;;
22268;SDS011;11303;50.772;19.670;2023-08-06T13:46:12;3.28;;;3.08;;
22268;SDS011;11303;50.772;19.670;2023-08-06T13:48:17;1.52;;;0.50;;
22268;SDS011;11303;50.772;19.670;2023-08-06T13:50:19;10.32;;;7.82;;
22268;SDS011;11303;50.772;19.670;2023-08-06T13:52:24;1.00;;;0.90;;
22268;SDS011;11303;50.772;19.670;2023-08-06T13:54:29;0.75;;;0.45;;
22268;SDS011;11303;50.772;19.670;2023-08-06T13:56:31;1.40;;;1.30;;
22268;SDS011;11303;50.772;19.670;2023-08-06T13:58:33;5.35;;;0.90;;
22268;SDS011;11303;50.772;19.670;2023-08-06T14:00:35;2.00;;;0.90;;
22268;SDS011;11303;50.772;19.670;2023-08-06T14:02:37;1.50;;;0.98;;
22268;SDS011;11303;50.772;19.670;2023-08-06T14:04:39;5.03;;;1.90;;
22268;SDS011;11303;50.772;19.670;2023-08-06T14:06:41;10.27;;;3.08;;
22268;SDS011;11303;50.772;19.670;2023-08-06T14:08:43;1.27;;;0.80;;
22268;SDS011;11303;50.772;19.670;2023-08-06T14:10:45;1.08;;;0.60;;
22268;SDS011;11303;50.772;19.670;2023-08-06T14:12:47;7.93;;;2.42;;
22268;SDS011;11303;50.772;19.670;2023-08-06T14:15:05;34.03;;;14.93;;
22268;SDS011;11303;50.772;19.670;2023-08-06T14:17:07;8.55;;;4.63;;
22268;SDS011;11303;50.772;19.670;2023-08-06T14:19:09;2.50;;;1.90;;
22268;SDS011;11303;50.772;19.670;2023-08-06T14:21:11;3.20;;;1.10;;
22268;SDS011;11303;50.772;19.670;2023-08-06T14:23:12;1.52;;;0.63;;
22268;SDS011;11303;50.772;19.670;2023-08-06T14:25:14;0.93;;;0.70;;
22268;SDS011;11303;50.772;19.670;2023-08-06T14:27:16;1.25;;;0.90;;
22268;SDS011;11303;50.772;19.670;2023-08-06T14:29:18;2.83;;;0.80;;
22268;SDS011;11303;50.772;19.670;2023-08-06T14:31:22;1.15;;;1.10;;
22268;SDS011;11303;50.772;19.670;2023-08-06T14:33:24;3.47;;;1.50;;
22268;SDS011;11303;50.772;19.670;2023-08-06T14:35:28;1.65;;;1.33;;
22268;SDS011;11303;50.772;19.670;2023-08-06T14:37:30;19.73;;;12.32;;
22268;SDS011;11303;50.772;19.670;2023-08-06T14:39:31;28.80;;;20.30;;
22268;SDS011;11303;50.772;19.670;2023-08-06T14:41:33;12.80;;;8.20;;
22268;SDS011;11303;50.772;19.670;2023-08-06T14:43:35;2.47;;;1.95;;
22268;SDS011;11303;50.772;19.670;2023-08-06T14:45:37;2.10;;;1.50;;
22268;SDS011;11303;50.772;19.670;2023-08-06T14:47:40;0.98;;;0.73;;
22268;SDS011;11303;50.772;19.670;2023-08-06T14:49:42;2.00;;;1.60;;
22268;SDS011;11303;50.772;19.670;2023-08-06T14:51:43;11.63;;;7.00;;
22268;SDS011;11303;50.772;19.670;2023-08-06T14:53:45;19.08;;;10.95;;
22268;SDS011;11303;50.772;19.670;2023-08-06T14:55:47;7.78;;;4.35;;
22268;SDS011;11303;50.772;19.670;2023-08-06T14:57:49;4.25;;;2.72;;
22268;SDS011;11303;50.772;19.670;2023-08-06T14:59:51;2.90;;;1.67;;
22268;SDS011;11303;50.772;19.670;2023-08-06T15:01:53;1.17;;;1.08;;
22268;SDS011;11303;50.772;19.670;2023-08-06T15:03:55;2.45;;;1.52;;
22268;SDS011;11303;50.772;19.670;2023-08-06T15:05:57;0.80;;;0.80;;
22268;SDS011;11303;50.772;19.670;2023-08-06T15:07:59;0.70;;;0.70;;
22268;SDS011;11303;50.772;19.670;2023-08-06T15:10:01;9.10;;;2.10;;
22268;SDS011;11303;50.772;19.670;2023-08-06T15:12:06;4.28;;;2.05;;
22268;SDS011;11303;50.772;19.670;2023-08-06T15:14:08;4.70;;;2.25;;
22268;SDS011;11303;50.772;19.670;2023-08-06T15:16:10;2.85;;;1.55;;
22268;SDS011;11303;50.772;19.670;2023-08-06T15:18:12;4.63;;;2.30;;
22268;SDS011;11303;50.772;19.670;2023-08-06T15:20:13;9.20;;;1.92;;
22268;SDS011;11303;50.772;19.670;2023-08-06T15:22:15;3.80;;;1.75;;
22268;SDS011;11303;50.772;19.670;2023-08-06T15:24:17;4.10;;;1.38;;
22268;SDS011;11303;50.772;19.670;2023-08-06T15:26:18;4.47;;;1.95;;
22268;SDS011;11303;50.772;19.670;2023-08-06T15:28:21;6.18;;;2.80;;
22268;SDS011;11303;50.772;19.670;2023-08-06T15:30:23;1.83;;;1.05;;
22268;SDS011;11303;50.772;19.670;2023-08-06T15:32:24;0.60;;;0.60;;
22268;SDS011;11303;50.772;19.670;2023-08-06T15:34:27;0.77;;;0.60;;
22268;SDS011;11303;50.772;19.670;2023-08-06T15:36:29;1.83;;;0.40;;
22268;SDS011;11303;50.772;19.670;2023-08-06T15:38:31;1.17;;;0.85;;
22268;SDS011;11303;50.772;19.670;2023-08-06T15:40:32;1.35;;;0.88;;
22268;SDS011;11303;50.772;19.670;2023-08-06T15:42:34;5.10;;;2.40;;
22268;SDS011;11303;50.772;19.670;2023-08-06T15:44:36;3.20;;;1.50;;
22268;SDS011;11303;50.772;19.670;2023-08-06T15:46:37;0.90;;;0.90;;
22268;SDS011;11303;50.772;19.670;2023-08-06T15:48:39;2.90;;;0.95;;
22268;SDS011;11303;50.772;19.670;2023-08-06T15:50:41;1.33;;;0.80;;
22268;SDS011;11303;50.772;19.670;2023-08-06T15:52:46;1.40;;;0.82;;
22268;SDS011;11303;50.772;19.670;2023-08-06T15:54:47;0.93;;;0.90;;
22268;SDS011;11303;50.772;19.670;2023-08-06T15:56:49;2.17;;;1.30;;
22268;SDS011;11303;50.772;19.670;2023-08-06T15:58:51;1.30;;;1.10;;
22268;SDS011;11303;50.772;19.670;2023-08-06T16:00:52;1.98;;;1.25;;
22268;SDS011;11303;50.772;19.670;2023-08-06T16:02:54;3.38;;;2.22;;
22268;SDS011;11303;50.772;19.670;2023-08-06T16:04:58;4.38;;;3.05;;
22268;SDS011;11303;50.772;19.670;2023-08-06T16:07:05;9.95;;;9.15;;
22268;SDS011;11303;50.772;19.670;2023-08-06T16:09:07;17.95;;;16.48;;
22268;SDS011;11303;50.772;19.670;2023-08-06T16:11:09;2.58;;;2.20;;
22268;SDS011;11303;50.772;19.670;2023-08-06T16:13:11;9.32;;;4.75;;
22268;SDS011;11303;50.772;19.670;2023-08-06T16:15:13;23.02;;;10.98;;
22268;SDS011;11303;50.772;19.670;2023-08-06T16:17:20;4.93;;;3.20;;
22268;SDS011;11303;50.772;19.670;2023-08-06T16:19:24;3.70;;;2.10;;
22268;SDS011;11303;50.772;19.670;2023-08-06T16:21:25;9.55;;;4.85;;
22268;SDS011;11303;50.772;19.670;2023-08-06T16:23:27;15.55;;;3.20;;
22268;SDS011;11303;50.772;19.670;2023-08-06T16:25:29;2.65;;;1.55;;
22268;SDS011;11303;50.772;19.670;2023-08-06T16:27:30;32.65;;;12.55;;
22268;SDS011;11303;50.772;19.670;2023-08-06T16:29:32;11.98;;;5.22;;
22268;SDS011;11303;50.772;19.670;2023-08-06T16:31:34;33.67;;;12.18;;
22268;SDS011;11303;50.772;19.670;2023-08-06T16:33:36;5.43;;;3.00;;
22268;SDS011;11303;50.772;19.670;2023-08-06T16:35:40;12.45;;;6.10;;
22268;SDS011;11303;50.772;19.670;2023-08-06T16:37:44;7.50;;;4.00;;
22268;SDS011;11303;50.772;19.670;2023-08-06T16:39:48;5.32;;;3.92;;
22268;SDS011;11303;50.772;19.670;2023-08-06T16:41:51;7.32;;;3.47;;
22268;SDS011;11303;50.772;19.670;2023-08-06T16:43:52;4.10;;;2.25;;
22268;SDS011;11303;50.772;19.670;2023-08-06T16:45:54;20.95;;;9.32;;
22268;SDS011;11303;50.772;19.670;2023-08-06T16:47:56;27.27;;;10.98;;
22268;SDS011;11303;50.772;19.670;2023-08-06T16:49:57;33.55;;;12.18;;
22268;SDS011;11303;50.772;19.670;2023-08-06T16:51:59;38.60;;;15.63;;
22268;SDS011;11303;50.772;19.670;2023-08-06T16:54:01;17.55;;;8.70;;
22268;SDS011;11303;50.772;19.670;2023-08-06T16:56:03;33.80;;;14.85;;
22268;SDS011;11303;50.772;19.670;2023-08-06T16:58:04;9.98;;;4.45;;
22268;SDS011;11303;50.772;19.670;2023-08-06T17:00:06;14.48;;;6.85;;
22268;SDS011;11303;50.772;19.670;2023-08-06T17:02:08;11.25;;;5.95;;
22268;SDS011;11303;50.772;19.670;2023-08-06T17:04:10;10.60;;;5.20;;
22268;SDS011;11303;50.772;19.670;2023-08-06T17:06:13;8.73;;;4.50;;
22268;SDS011;11303;50.772;19.670;2023-08-06T17:08:16;7.40;;;4.15;;
22268;SDS011;11303;50.772;19.670;2023-08-06T17:10:18;13.45;;;6.88;;
22268;SDS011;11303;50.772;19.670;2023-08-06T17:12:21;6.65;;;4.30;;
22268;SDS011;11303;50.772;19.670;2023-08-06T17:14:23;14.82;;;6.07;;
22268;SDS011;11303;50.772;19.670;2023-08-06T17:16:24;11.20;;;8.50;;
22268;SDS011;11303;50.772;19.670;2023-08-06T17:18:27;16.05;;;10.38;;
22268;SDS011;11303;50.772;19.670;2023-08-06T17:20:29;11.55;;;9.73;;
22268;SDS011;11303;50.772;19.670;2023-08-06T17:22:32;11.90;;;7.43;;
22268;SDS011;11303;50.772;19.670;2023-08-06T17:24:34;12.52;;;6.63;;
22268;SDS011;11303;50.772;19.670;2023-08-06T17:26:36;16.75;;;10.02;;
22268;SDS011;11303;50.772;19.670;2023-08-06T17:28:38;49.65;;;29.20;;
22268;SDS011;11303;50.772;19.670;2023-08-06T17:30:40;18.77;;;12.45;;
22268;SDS011;11303;50.772;19.670;2023-08-06T17:32:42;12.40;;;5.85;;
22268;SDS011;11303;50.772;19.670;2023-08-06T17:34:44;10.88;;;5.22;;
22268;SDS011;11303;50.772;19.670;2023-08-06T17:36:46;11.57;;;4.47;;
22268;SDS011;11303;50.772;19.670;2023-08-06T17:38:48;3.65;;;2.42;;
22268;SDS011;11303;50.772;19.670;2023-08-06T17:40:53;2.38;;;1.70;;
22268;SDS011;11303;50.772;19.670;2023-08-06T17:42:55;5.97;;;2.85;;
22268;SDS011;11303;50.772;19.670;2023-08-06T17:44:57;2.58;;;1.70;;
22268;SDS011;11303;50.772;19.670;2023-08-06T17:46:59;6.95;;;3.88;;
22268;SDS011;11303;50.772;19.670;2023-08-06T17:49:01;7.47;;;3.72;;
22268;SDS011;11303;50.772;19.670;2023-08-06T17:51:03;4.10;;;2.22;;
22268;SDS011;11303;50.772;19.670;2023-08-06T17:53:05;9.23;;;5.00;;
22268;SDS011;11303;50.772;19.670;2023-08-06T17:55:07;10.15;;;5.43;;
22268;SDS011;11303;50.772;19.670;2023-08-06T17:57:09;6.38;;;3.08;;
22268;SDS011;11303;50.772;19.670;2023-08-06T17:59:10;11.65;;;5.38;;
22268;SDS011;11303;50.772;19.670;2023-08-06T18:01:12;7.20;;;3.67;;
22268;SDS011;11303;50.772;19.670;2023-08-06T18:03:14;8.32;;;4.75;;
22268;SDS011;11303;50.772;19.670;2023-08-06T18:05:18;3.33;;;2.10;;
22268;SDS011;11303;50.772;19.670;2023-08-06T18:07:20;8.73;;;4.50;;
22268;SDS011;11303;50.772;19.670;2023-08-06T18:09:22;10.82;;;4.43;;
22268;SDS011;11303;50.772;19.670;2023-08-06T18:11:23;9.40;;;4.00;;
22268;SDS011;11303;50.772;19.670;2023-08-06T18:13:25;13.57;;;5.60;;
22268;SDS011;11303;50.772;19.670;2023-08-06T18:15:27;4.45;;;2.60;;
22268;SDS011;11303;50.772;19.670;2023-08-06T18:17:29;6.53;;;2.63;;
22268;SDS011;11303;50.772;19.670;2023-08-06T18:19:31;9.13;;;3.42;;
22268;SDS011;11303;50.772;19.670;2023-08-06T18:21:33;6.00;;;2.67;;
22268;SDS011;11303;50.772;19.670;2023-08-06T18:23:34;4.47;;;2.33;;
22268;SDS011;11303;50.772;19.670;2023-08-06T18:25:36;4.15;;;1.92;;
22268;SDS011;11303;50.772;19.670;2023-08-06T18:27:38;3.55;;;1.80;;
22268;SDS011;11303;50.772;19.670;2023-08-06T18:29:44;6.82;;;2.70;;
22268;SDS011;11303;50.772;19.670;2023-08-06T18:31:46;5.40;;;2.30;;
22268;SDS011;11303;50.772;19.670;2023-08-06T18:33:48;2.13;;;1.50;;
22268;SDS011;11303;50.772;19.670;2023-08-06T18:35:49;1.00;;;1.00;;
22268;SDS011;11303;50.772;19.670;2023-08-06T18:37:51;2.17;;;1.90;;
22268;SDS011;11303;50.772;19.670;2023-08-06T18:39:53;1.83;;;1.20;;
22268;SDS011;11303;50.772;19.670;2023-08-06T18:42:02;3.83;;;1.70;;
22268;SDS011;11303;50.772;19.670;2023-08-06T18:44:04;8.10;;;3.72;;
22268;SDS011;11303;50.772;19.670;2023-08-06T18:46:06;3.60;;;2.33;;
22268;SDS011;11303;50.772;19.670;2023-08-06T18:48:08;5.82;;;3.55;;
22268;SDS011;11303;50.772;19.670;2023-08-06T18:50:09;6.13;;;2.88;;
22268;SDS011;11303;50.772;19.670;2023-08-06T18:52:12;3.58;;;1.58;;
22268;SDS011;11303;50.772;19.670;2023-08-06T18:54:14;4.78;;;1.20;;
22268;SDS011;11303;50.772;19.670;2023-08-06T18:56:15;6.68;;;1.60;;
22268;SDS011;11303;50.772;19.670;2023-08-06T18:58:17;4.10;;;2.08;;
22268;SDS011;11303;50.772;19.670;2023-08-06T19:00:19;1.90;;;1.30;;
22268;SDS011;11303;50.772;19.670;2023-08-06T19:02:21;2.92;;;2.17;;
22268;SDS011;11303;50.772;19.670;2023-08-06T19:04:22;2.70;;;1.63;;
22268;SDS011;11303;50.772;19.670;2023-08-06T19:06:25;1.98;;;1.40;;
22268;SDS011;11303;50.772;19.670;2023-08-06T19:08:30;10.50;;;4.78;;
22268;SDS011;11303;50.772;19.670;2023-08-06T19:10:32;5.72;;;4.75;;
22268;SDS011;11303;50.772;19.670;2023-08-06T19:12:34;3.15;;;1.60;;
22268;SDS011;11303;50.772;19.670;2023-08-06T19:14:36;2.58;;;1.17;;
22268;SDS011;11303;50.772;19.670;2023-08-06T19:16:38;3.67;;;1.55;;
22268;SDS011;11303;50.772;19.670;2023-08-06T19:18:47;2.58;;;0.98;;
22268;SDS011;11303;50.772;19.670;2023-08-06T19:20:50;2.10;;;1.40;;
22268;SDS011;11303;50.772;19.670;2023-08-06T19:22:57;2.63;;;1.65;;
22268;SDS011;11303;50.772;19.670;2023-08-06T19:24:59;2.58;;;1.40;;
22268;SDS011;11303;50.772;19.670;2023-08-06T19:27:01;4.10;;;1.30;;
22268;SDS011;11303;50.772;19.670;2023-08-06T19:29:05;5.47;;;1.70;;
22268;SDS011;11303;50.772;19.670;2023-08-06T19:31:06;1.95;;;1.50;;
22268;SDS011;11303;50.772;19.670;2023-08-06T19:33:09;5.82;;;1.60;;
22268;SDS011;11303;50.772;19.670;2023-08-06T19:35:12;2.70;;;2.10;;
22268;SDS011;11303;50.772;19.670;2023-08-06T19:37:13;21.95;;;9.73;;
22268;SDS011;11303;50.772;19.670;2023-08-06T19:39:15;13.68;;;8.15;;
22268;SDS011;11303;50.772;19.670;2023-08-06T19:41:17;8.70;;;5.55;;
22268;SDS011;11303;50.772;19.670;2023-08-06T19:43:18;2.53;;;2.10;;
22268;SDS011;11303;50.772;19.670;2023-08-06T19:45:20;4.03;;;1.95;;
22268;SDS011;11303;50.772;19.670;2023-08-06T19:47:22;20.27;;;8.32;;
22268;SDS011;11303;50.772;19.670;2023-08-06T19:49:23;6.38;;;2.95;;
22268;SDS011;11303;50.772;19.670;2023-08-06T19:51:25;3.55;;;1.98;;
22268;SDS011;11303;50.772;19.670;2023-08-06T19:53:27;3.78;;;1.98;;
22268;SDS011;11303;50.772;19.670;2023-08-06T19:55:31;3.47;;;2.38;;
22268;SDS011;11303;50.772;19.670;2023-08-06T19:57:33;2.83;;;1.90;;
22268;SDS011;11303;50.772;19.670;2023-08-06T19:59:34;4.25;;;2.38;;
22268;SDS011;11303;50.772;19.670;2023-08-06T20:01:36;3.17;;;2.10;;
22268;SDS011;11303;50.772;19.670;2023-08-06T20:03:38;2.40;;;2.20;;
22268;SDS011;11303;50.772;19.670;2023-08-06T20:05:44;3.83;;;2.42;;
22268;SDS011;11303;50.772;19.670;2023-08-06T20:07:46;4.18;;;2.70;;
22268;SDS011;11303;50.772;19.670;2023-08-06T20:09:48;2.80;;;2.60;;
22268;SDS011;11303;50.772;19.670;2023-08-06T20:11:49;3.05;;;2.60;;
22268;SDS011;11303;50.772;19.670;2023-08-06T20:13:51;3.53;;;2.70;;
22268;SDS011;11303;50.772;19.670;2023-08-06T20:15:53;5.88;;;2.67;;
22268;SDS011;11303;50.772;19.670;2023-08-06T20:17:55;2.80;;;2.40;;
22268;SDS011;11303;50.772;19.670;2023-08-06T20:19:56;3.22;;;2.60;;
22268;SDS011;11303;50.772;19.670;2023-08-06T20:21:58;4.10;;;2.55;;
22268;SDS011;11303;50.772;19.670;2023-08-06T20:24:00;3.80;;;2.78;;
22268;SDS011;11303;50.772;19.670;2023-08-06T20:26:01;4.72;;;2.80;;
22268;SDS011;11303;50.772;19.670;2023-08-06T20:28:03;3.75;;;3.22;;
22268;SDS011;11303;50.772;19.670;2023-08-06T20:30:05;5.40;;;3.40;;
22268;SDS011;11303;50.772;19.670;2023-08-06T20:32:07;4.82;;;3.33;;
22268;SDS011;11303;50.772;19.670;2023-08-06T20:34:09;4.25;;;3.47;;
22268;SDS011;11303;50.772;19.670;2023-08-06T20:36:11;3.63;;;3.10;;
22268;SDS011;11303;50.772;19.670;2023-08-06T20:38:12;3.67;;;2.95;;
22268;SDS011;11303;50.772;19.670;2023-08-06T20:40:14;4.45;;;3.47;;
22268;SDS011;11303;50.772;19.670;2023-08-06T20:42:16;3.88;;;3.25;;
22268;SDS011;11303;50.772;19.670;2023-08-06T20:44:17;6.30;;;3.40;;
22268;SDS011;11303;50.772;19.670;2023-08-06T20:46:19;4.10;;;3.15;;
22268;SDS011;11303;50.772;19.670;2023-08-06T20:48:21;3.42;;;3.10;;
22268;SDS011;11303;50.772;19.670;2023-08-06T20:50:23;5.68;;;3.63;;
22268;SDS011;11303;50.772;19.670;2023-08-06T20:52:26;4.32;;;3.28;;
22268;SDS011;11303;50.772;19.670;2023-08-06T20:54:27;6.55;;;4.75;;
22268;SDS011;11303;50.772;19.670;2023-08-06T20:56:29;10.45;;;6.22;;
22268;SDS011;11303;50.772;19.670;2023-08-06T20:58:31;12.60;;;10.68;;
22268;SDS011;11303;50.772;19.670;2023-08-06T21:00:33;7.82;;;6.80;;
22268;SDS011;11303;50.772;19.670;2023-08-06T21:02:34;4.28;;;3.88;;
22268;SDS011;11303;50.772;19.670;2023-08-06T21:04:36;4.43;;;3.65;;
22268;SDS011;11303;50.772;19.670;2023-08-06T21:06:38;3.90;;;3.33;;
22268;SDS011;11303;50.772;19.670;2023-08-06T21:08:39;5.50;;;4.32;;
22268;SDS011;11303;50.772;19.670;2023-08-06T21:10:41;6.53;;;4.18;;
22268;SDS011;11303;50.772;19.670;2023-08-06T21:12:43;4.55;;;3.58;;
22268;SDS011;11303;50.772;19.670;2023-08-06T21:14:45;4.32;;;2.88;;
22268;SDS011;11303;50.772;19.670;2023-08-06T21:16:46;7.70;;;3.15;;
22268;SDS011;11303;50.772;19.670;2023-08-06T21:18:48;6.13;;;3.30;;
22268;SDS011;11303;50.772;19.670;2023-08-06T21:20:53;4.53;;;3.00;;
22268;SDS011;11303;50.772;19.670;2023-08-06T21:22:55;7.35;;;3.67;;
22268;SDS011;11303;50.772;19.670;2023-08-06T21:24:56;6.03;;;4.10;;
22268;SDS011;11303;50.772;19.670;2023-08-06T21:26:58;4.88;;;3.55;;
22268;SDS011;11303;50.772;19.670;2023-08-06T21:29:00;5.82;;;4.40;;
22268;SDS011;11303;50.772;19.670;2023-08-06T21:31:02;6.03;;;3.72;;
22268;SDS011;11303;50.772;19.670;2023-08-06T21:33:05;5.05;;;3.63;;
22268;SDS011;11303;50.772;19.670;2023-08-06T21:35:07;7.47;;;3.90;;
22268;SDS011;11303;50.772;19.670;2023-08-06T21:37:11;6.22;;;3.45;;
22268;SDS011;11303;50.772;19.670;2023-08-06T21:39:13;6.47;;;3.83;;
22268;SDS011;11303;50.772;19.670;2023-08-06T21:41:15;6.60;;;3.80;;
22268;SDS011;11303;50.772;19.670;2023-08-06T21:43:17;7.97;;;4.00;;
22268;SDS011;11303;50.772;19.670;2023-08-06T21:45:18;5.75;;;3.92;;
22268;SDS011;11303;50.772;19.670;2023-08-06T21:47:20;5.53;;;4.05;;
22268;SDS011;11303;50.772;19.670;2023-08-06T21:49:22;8.00;;;3.95;;
22268;SDS011;11303;50.772;19.670;2023-08-06T21:51:25;8.40;;;3.90;;
22268;SDS011;11303;50.772;19.670;2023-08-06T21:53:28;4.97;;;3.70;;
22268;SDS011;11303;50.772;19.670;2023-08-06T21:55:31;7.43;;;3.67;;
22268;SDS011;11303;50.772;19.670;2023-08-06T21:57:35;5.20;;;4.00;;
22268;SDS011;11303;50.772;19.670;2023-08-06T21:59:37;5.07;;;3.85;;
22268;SDS011;11303;50.772;19.670;2023-08-06T22:01:38;5.78;;;3.60;;
22268;SDS011;11303;50.772;19.670;2023-08-06T22:03:40;4.38;;;3.40;;
22268;SDS011;11303;50.772;19.670;2023-08-06T22:05:44;5.85;;;3.78;;
22268;SDS011;11303;50.772;19.670;2023-08-06T22:07:46;4.28;;;3.35;;
22268;SDS011;11303;50.772;19.670;2023-08-06T22:09:47;4.68;;;3.20;;
22268;SDS011;11303;50.772;19.670;2023-08-06T22:11:49;3.55;;;3.10;;
22268;SDS011;11303;50.772;19.670;2023-08-06T22:13:51;6.03;;;3.30;;
22268;SDS011;11303;50.772;19.670;2023-08-06T22:15:52;5.55;;;3.00;;
22268;SDS011;11303;50.772;19.670;2023-08-06T22:17:54;5.20;;;3.33;;
22268;SDS011;11303;50.772;19.670;2023-08-06T22:19:56;4.25;;;3.25;;
22268;SDS011;11303;50.772;19.670;2023-08-06T22:21:59;3.47;;;3.10;;
22268;SDS011;11303;50.772;19.670;2023-08-06T22:24:00;3.92;;;3.13;;